Time,TemperatureF,DewpointF,PressureIn,WindDirection,WindDirectionDegrees,WindSpeedMPH,WindSpeedGustMPH,Humidity,HourlyPrecipIn,Conditions,Clouds,dailyrainin,SoftwareType,DateUTC
2013-04-03 00:00:00,23.3,12.6,30.26,NW,322,0.0,7.0,63,0.00,,---,0.00,VWS V14.01,2013-04-03 04:00:00,
2013-04-03 00:05:00,23.3,12.2,30.26,NW,322,0.0,3.0,62,0.00,,---,0.00,VWS V14.01,2013-04-03 04:05:00,
2013-04-03 00:10:00,23.2,12.1,30.26,NW,322,0.0,0.0,62,0.00,,---,0.00,VWS V14.01,2013-04-03 04:10:00,
2013-04-03 00:15:00,22.7,11.6,30.27,NW,321,1.0,3.0,62,0.00,,---,0.00,VWS V14.01,2013-04-03 04:15:00,
2013-04-03 00:20:00,22.6,11.9,30.27,NW,321,0.0,0.0,63,0.00,,---,0.00,VWS V14.01,2013-04-03 04:20:00,
2013-04-03 00:25:00,22.4,11.4,30.26,NW,321,0.0,2.0,62,0.00,,---,0.00,VWS V14.01,2013-04-03 04:25:00,
2013-04-03 00:30:00,22.4,12.1,30.26,NW,321,0.0,0.0,64,0.00,,---,0.00,VWS V14.01,2013-04-03 04:30:00,
2013-04-03 00:35:00,22.4,11.7,30.26,NW,321,0.0,3.0,63,0.00,,---,0.00,VWS V14.01,2013-04-03 04:35:00,
2013-04-03 00:40:00,22.6,11.9,30.26,North,351,1.0,4.0,63,0.00,,---,0.00,VWS V14.01,2013-04-03 04:40:00,
2013-04-03 00:45:00,22.9,11.8,30.26,NNW,336,1.0,5.0,62,0.00,,---,0.00,VWS V14.01,2013-04-03 04:45:00,
2013-04-03 00:50:00,22.9,11.8,30.26,NNW,336,0.0,1.0,62,0.00,,---,0.00,VWS V14.01,2013-04-03 04:50:00,
2013-04-03 00:55:00,22.9,11.8,30.26,NNW,336,1.0,4.0,62,0.00,,---,0.00,VWS V14.01,2013-04-03 04:55:00,
2013-04-03 01:00:00,23.0,11.6,30.25,NNW,336,0.0,2.0,61,0.00,,---,0.00,VWS V14.01,2013-04-03 05:00:00,
2013-04-03 01:05:00,22.9,11.5,30.26,NNW,336,0.0,2.0,61,0.00,,---,0.00,VWS V14.01,2013-04-03 05:05:00,
2013-04-03 01:10:00,22.6,11.6,30.26,NNW,336,3.0,3.0,62,0.00,,---,0.00,VWS V14.01,2013-04-03 05:10:00,
2013-04-03 01:15:00,22.4,11.4,30.26,NNW,336,0.0,3.0,62,0.00,,---,0.00,VWS V14.01,2013-04-03 05:15:00,
2013-04-03 01:20:00,22.3,11.3,30.26,NNW,336,3.0,3.0,62,0.00,,---,0.00,VWS V14.01,2013-04-03 05:20:00,
2013-04-03 01:26:00,22.3,11.3,30.26,NNW,336,0.0,4.0,62,0.00,,---,0.00,VWS V14.01,2013-04-03 05:26:00,
2013-04-03 01:30:00,22.4,12.1,30.26,NW,321,0.0,2.0,64,0.00,,---,0.00,VWS V14.01,2013-04-03 05:30:00,
2013-04-03 01:31:00,22.3,11.3,30.26,NNW,336,0.0,3.0,62,0.00,,---,0.00,VWS V14.01,2013-04-03 05:31:00,
2013-04-03 01:36:00,22.4,11.4,30.26,NNW,336,0.0,3.0,62,0.00,,---,0.00,VWS V14.01,2013-04-03 05:36:00,
2013-04-03 01:40:00,22.6,11.9,30.26,NW,321,2.0,5.0,63,0.00,,---,0.00,VWS V14.01,2013-04-03 05:40:00,
2013-04-03 01:41:00,22.3,10.9,30.26,NNW,336,0.0,0.0,61,0.00,,---,0.00,VWS V14.01,2013-04-03 05:41:00,
2013-04-03 01:46:00,22.0,11.0,30.26,NNW,336,0.0,0.0,62,0.00,,---,0.00,VWS V14.01,2013-04-03 05:46:00,
2013-04-03 01:50:00,22.9,11.8,30.26,NNW,336,1.0,5.0,62,0.00,,---,0.00,VWS V14.01,2013-04-03 05:50:00,
2013-04-03 01:52:00,21.5,10.5,30.26,NNW,336,0.0,0.0,62,0.00,,---,0.00,VWS V14.01,2013-04-03 05:52:00,
2013-04-03 01:57:00,21.2,10.6,30.26,NNW,336,0.0,0.0,63,0.00,,---,0.00,VWS V14.01,2013-04-03 05:57:00,
2013-04-03 02:00:00,23.0,11.6,30.26,NNW,336,0.0,4.0,61,0.00,,---,0.00,VWS V14.01,2013-04-03 06:00:00,
2013-04-03 02:02:00,21.0,10.4,30.26,NNW,334,0.0,0.0,63,0.00,,---,0.00,VWS V14.01,2013-04-03 06:02:00,
2013-04-03 02:07:00,20.9,10.6,30.26,NNW,334,0.0,3.0,64,0.00,,---,0.00,VWS V14.01,2013-04-03 06:07:00,
2013-04-03 02:10:00,22.6,11.2,30.26,NNW,336,2.0,4.0,61,0.00,,---,0.00,VWS V14.01,2013-04-03 06:10:00,
2013-04-03 02:12:00,20.9,11.0,30.26,NNW,334,2.0,3.0,65,0.00,,---,0.00,VWS V14.01,2013-04-03 06:12:00,
2013-04-03 02:17:00,20.9,10.6,30.26,NNW,335,0.0,3.0,64,0.00,,---,0.00,VWS V14.01,2013-04-03 06:17:00,
2013-04-03 02:20:00,22.4,11.4,30.26,NNW,336,0.0,3.0,62,0.00,,---,0.00,VWS V14.01,2013-04-03 06:20:00,
2013-04-03 02:22:00,20.7,10.8,30.26,NNW,335,0.0,0.0,65,0.00,,---,0.00,VWS V14.01,2013-04-03 06:22:00,
2013-04-03 02:27:00,20.4,10.5,30.26,NNW,335,0.0,1.0,65,0.00,,---,0.00,VWS V14.01,2013-04-03 06:27:00,
2013-04-03 02:30:00,22.3,11.3,30.26,NNW,336,0.0,4.0,62,0.00,,---,0.00,VWS V14.01,2013-04-03 06:30:00,
2013-04-03 02:32:00,20.0,10.5,30.27,NNW,335,0.0,0.0,66,0.00,,---,0.00,VWS V14.01,2013-04-03 06:32:00,
2013-04-03 02:37:00,19.9,10.4,30.26,NNW,335,0.0,0.0,66,0.00,,---,0.00,VWS V14.01,2013-04-03 06:37:00,
2013-04-03 02:40:00,22.3,11.3,30.26,NNW,336,0.0,3.0,62,0.00,,---,0.00,VWS V14.01,2013-04-03 06:40:00,
2013-04-03 02:42:00,20.0,10.8,30.26,NNW,335,0.0,0.0,67,0.00,,---,0.00,VWS V14.01,2013-04-03 06:42:00,
2013-04-03 02:47:00,20.4,11.5,30.26,NNW,335,0.0,1.0,68,0.00,,---,0.00,VWS V14.01,2013-04-03 06:47:00,
2013-04-03 02:50:00,21.7,10.7,30.26,NNW,336,0.0,0.0,62,0.00,,---,0.00,VWS V14.01,2013-04-03 06:50:00,
2013-04-03 02:52:00,20.6,11.4,30.26,NNW,335,0.0,0.0,67,0.00,,---,0.00,VWS V14.01,2013-04-03 06:52:00,
2013-04-03 02:57:00,20.7,11.5,30.26,NNW,336,0.0,0.0,67,0.00,,---,0.00,VWS V14.01,2013-04-03 06:57:00,
2013-04-03 03:00:00,21.0,10.4,30.26,NNW,335,0.0,0.0,63,0.00,,---,0.00,VWS V14.01,2013-04-03 07:00:00,
2013-04-03 03:02:00,20.9,12.0,30.26,NNW,336,0.0,0.0,68,0.00,,---,0.00,VWS V14.01,2013-04-03 07:02:00,
2013-04-03 03:07:00,21.1,12.2,30.26,NNW,336,0.0,3.0,68,0.00,,---,0.00,VWS V14.01,2013-04-03 07:07:00,
2013-04-03 03:10:00,20.7,10.8,30.26,NNW,334,0.0,3.0,65,0.00,,---,0.00,VWS V14.01,2013-04-03 07:10:00,
2013-04-03 03:12:00,21.5,12.6,30.26,NNW,329,0.0,3.0,68,0.00,,---,0.00,VWS V14.01,2013-04-03 07:12:00,
2013-04-03 03:17:00,22.1,12.8,30.26,NNW,330,1.0,4.0,67,0.00,,---,0.00,VWS V14.01,2013-04-03 07:17:00,
2013-04-03 03:20:00,20.7,10.5,30.26,NNW,335,0.0,3.0,64,0.00,,---,0.00,VWS V14.01,2013-04-03 07:20:00,
2013-04-03 03:22:00,22.6,13.0,30.26,NNW,330,0.0,2.0,66,0.00,,---,0.00,VWS V14.01,2013-04-03 07:22:00,
2013-04-03 03:27:00,22.9,13.6,30.26,NNW,343,11.0,13.0,67,0.00,,---,0.00,VWS V14.01,2013-04-03 07:27:00,
2013-04-03 03:30:00,20.2,10.3,30.26,NNW,335,0.0,1.0,65,0.00,,---,0.00,VWS V14.01,2013-04-03 07:30:00,
2013-04-03 03:32:00,24.5,15.1,30.25,NNW,345,9.0,14.0,67,0.00,,---,0.00,VWS V14.01,2013-04-03 07:32:00,
2013-04-03 03:37:00,25.4,15.6,30.26,NNW,335,12.0,16.0,66,0.00,,---,0.00,VWS V14.01,2013-04-03 07:37:00,
2013-04-03 03:40:00,20.0,10.8,30.26,NNW,335,0.0,0.0,67,0.00,,---,0.00,VWS V14.01,2013-04-03 07:40:00,
2013-04-03 03:42:00,25.7,15.6,30.26,NNW,342,14.0,18.0,65,0.00,,---,0.00,VWS V14.01,2013-04-03 07:42:00,
2013-04-03 03:47:00,25.9,15.8,30.26,NW,320,8.0,18.0,65,0.00,,---,0.00,VWS V14.01,2013-04-03 07:47:00,
2013-04-03 03:50:00,20.6,11.7,30.26,NNW,335,0.0,1.0,68,0.00,,---,0.00,VWS V14.01,2013-04-03 07:50:00,
2013-04-03 03:52:00,25.9,15.1,30.26,NNE,20,16.0,18.0,63,0.00,,---,0.00,VWS V14.01,2013-04-03 07:52:00,
2013-04-03 03:57:00,25.9,14.7,30.26,NNW,337,12.0,19.0,62,0.00,,---,0.00,VWS V14.01,2013-04-03 07:57:00,
2013-04-03 04:00:00,20.7,11.5,30.26,NNW,336,0.0,0.0,67,0.00,,---,0.00,VWS V14.01,2013-04-03 08:00:00,
2013-04-03 04:03:00,25.9,14.3,30.27,NNW,339,4.0,16.0,61,0.00,,---,0.00,VWS V14.01,2013-04-03 08:03:00,
2013-04-03 04:08:00,25.7,13.0,30.27,NNE,20,14.0,17.0,58,0.00,,---,0.00,VWS V14.01,2013-04-03 08:08:00,
2013-04-03 04:10:00,21.0,11.8,30.25,NNW,329,2.0,6.0,67,0.00,,---,0.00,VWS V14.01,2013-04-03 08:10:00,
2013-04-03 04:13:00,25.6,12.9,30.27,NNW,346,12.0,16.0,58,0.00,,---,0.00,VWS V14.01,2013-04-03 08:13:00,
2013-04-03 04:18:00,25.4,12.7,30.27,North,356,9.0,16.0,58,0.00,,---,0.00,VWS V14.01,2013-04-03 08:18:00,
2013-04-03 04:20:00,22.4,13.1,30.26,NNW,330,0.0,4.0,67,0.00,,---,0.00,VWS V14.01,2013-04-03 08:20:00,
2013-04-03 04:23:00,25.1,12.4,30.27,North,5,13.0,13.0,58,0.00,,---,0.00,VWS V14.01,2013-04-03 08:23:00,
2013-04-03 04:28:00,25.1,12.0,30.28,NNE,16,12.0,15.0,57,0.00,,---,0.00,VWS V14.01,2013-04-03 08:28:00,
2013-04-03 04:30:00,23.5,14.5,30.25,North,357,11.0,16.0,68,0.00,,---,0.00,VWS V14.01,2013-04-03 08:30:00,
2013-04-03 04:33:00,24.9,11.8,30.28,North,350,11.0,14.0,57,0.00,,---,0.00,VWS V14.01,2013-04-03 08:33:00,
2013-04-03 04:38:00,24.8,11.3,30.28,North,351,10.0,15.0,56,0.00,,---,0.00,VWS V14.01,2013-04-03 08:38:00,
2013-04-03 04:40:00,25.5,15.4,30.26,North,350,14.0,16.0,65,0.00,,---,0.00,VWS V14.01,2013-04-03 08:40:00,
2013-04-03 04:43:00,24.6,11.2,30.28,NNW,347,10.0,11.0,56,0.00,,---,0.00,VWS V14.01,2013-04-03 08:43:00,
2013-04-03 04:48:00,24.5,11.1,30.28,North,0,11.0,15.0,56,0.00,,---,0.00,VWS V14.01,2013-04-03 08:48:00,
2013-04-03 04:50:00,25.8,15.3,30.26,NNW,339,8.0,20.0,64,0.00,,---,0.00,VWS V14.01,2013-04-03 08:50:00,
2013-04-03 04:53:00,24.5,10.7,30.29,NNW,331,7.0,10.0,55,0.00,,---,0.00,VWS V14.01,2013-04-03 08:53:00,
2013-04-03 04:58:00,24.3,11.3,30.29,NNE,15,5.0,11.0,57,0.00,,---,0.00,VWS V14.01,2013-04-03 08:58:00,
2013-04-03 05:00:00,25.9,14.7,30.27,NNW,346,8.0,19.0,62,0.00,,---,0.00,VWS V14.01,2013-04-03 09:00:00,
2013-04-03 05:03:00,24.3,11.3,30.29,NNE,28,6.0,10.0,57,0.00,,---,0.00,VWS V14.01,2013-04-03 09:03:00,
2013-04-03 05:08:00,24.1,11.1,30.29,North,359,6.0,10.0,57,0.00,,---,0.00,VWS V14.01,2013-04-03 09:08:00,
2013-04-03 05:10:00,25.7,13.0,30.27,NW,325,10.0,21.0,58,0.00,,---,0.00,VWS V14.01,2013-04-03 09:10:00,
2013-04-03 05:13:00,23.7,11.1,30.30,North,358,4.0,6.0,58,0.00,,---,0.00,VWS V14.01,2013-04-03 09:13:00,
2013-04-03 05:18:00,23.6,11.4,30.30,North,0,5.0,8.0,59,0.00,,---,0.00,VWS V14.01,2013-04-03 09:18:00,
2013-04-03 05:20:00,25.3,12.6,30.27,NNE,16,13.0,16.0,58,0.00,,---,0.00,VWS V14.01,2013-04-03 09:20:00,
2013-04-03 05:23:00,23.5,11.3,30.30,NNW,348,5.0,6.0,59,0.00,,---,0.00,VWS V14.01,2013-04-03 09:23:00,
2013-04-03 05:28:00,23.5,11.3,30.30,NNW,342,6.0,7.0,59,0.00,,---,0.00,VWS V14.01,2013-04-03 09:28:00,
2013-04-03 05:30:00,24.9,11.8,30.28,NNW,348,10.0,16.0,57,0.00,,---,0.00,VWS V14.01,2013-04-03 09:30:00,
2013-04-03 05:33:00,23.6,11.4,30.31,North,359,3.0,8.0,59,0.00,,---,0.00,VWS V14.01,2013-04-03 09:33:00,
2013-04-03 05:38:00,23.3,11.5,30.30,North,359,3.0,8.0,60,0.00,,---,0.00,VWS V14.01,2013-04-03 09:38:00,
2013-04-03 05:40:00,24.8,11.3,30.29,NNE,15,6.0,15.0,56,0.00,,---,0.00,VWS V14.01,2013-04-03 09:40:00,
2013-04-03 05:43:00,23.2,11.4,30.30,North,359,2.0,5.0,60,0.00,,---,0.00,VWS V14.01,2013-04-03 09:43:00,
2013-04-03 05:48:00,22.9,11.1,30.31,North,359,0.0,5.0,60,0.00,,---,0.00,VWS V14.01,2013-04-03 09:48:00,
2013-04-03 05:50:00,24.5,10.7,30.28,North,10,8.0,15.0,55,0.00,,---,0.00,VWS V14.01,2013-04-03 09:50:00,
2013-04-03 05:53:00,22.6,11.2,30.31,North,359,0.0,2.0,61,0.00,,---,0.00,VWS V14.01,2013-04-03 09:53:00,
2013-04-03 05:58:00,22.1,11.1,30.31,North,359,0.0,2.0,62,0.00,,---,0.00,VWS V14.01,2013-04-03 09:58:00,
2013-04-03 06:00:00,24.3,11.3,30.29,NNE,14,6.0,11.0,57,0.00,,---,0.00,VWS V14.01,2013-04-03 10:00:00,
2013-04-03 06:03:00,21.8,11.2,30.31,North,359,0.0,0.0,63,0.00,,---,0.00,VWS V14.01,2013-04-03 10:03:00,
2013-04-03 06:08:00,21.5,10.9,30.31,North,359,0.0,0.0,63,0.00,,---,0.00,VWS V14.01,2013-04-03 10:08:00,
2013-04-03 06:10:00,24.0,11.0,30.29,North,0,6.0,10.0,57,0.00,,---,0.00,VWS V14.01,2013-04-03 10:10:00,
2013-04-03 06:13:00,21.3,10.7,30.31,North,359,0.0,1.0,63,0.00,,---,0.00,VWS V14.01,2013-04-03 10:13:00,
2013-04-03 06:18:00,21.2,10.6,30.31,North,0,1.0,2.0,63,0.00,,---,0.00,VWS V14.01,2013-04-03 10:18:00,
2013-04-03 06:20:00,23.5,11.3,30.30,NNW,344,4.0,8.0,59,0.00,,---,0.00,VWS V14.01,2013-04-03 10:20:00,
2013-04-03 06:23:00,21.2,10.9,30.31,North,0,0.0,2.0,64,0.00,,---,0.00,VWS V14.01,2013-04-03 10:23:00,
2013-04-03 06:28:00,21.4,11.1,30.32,North,0,1.0,2.0,64,0.00,,---,0.00,VWS V14.01,2013-04-03 10:28:00,
2013-04-03 06:30:00,23.5,11.7,30.30,NNW,339,3.0,9.0,60,0.00,,---,0.00,VWS V14.01,2013-04-03 10:30:00,
2013-04-03 06:33:00,21.5,11.2,30.32,North,359,1.0,2.0,64,0.00,,---,0.00,VWS V14.01,2013-04-03 10:33:00,
2013-04-03 06:38:00,21.5,11.2,30.32,North,359,2.0,4.0,64,0.00,,---,0.00,VWS V14.01,2013-04-03 10:38:00,
2013-04-03 06:40:00,23.3,11.5,30.30,North,359,2.0,8.0,60,0.00,,---,0.00,VWS V14.01,2013-04-03 10:40:00,
2013-04-03 06:43:00,21.5,11.6,30.32,North,359,0.0,0.0,65,0.00,,---,0.00,VWS V14.01,2013-04-03 10:43:00,
2013-04-03 06:48:00,21.3,11.4,30.33,North,359,0.0,5.0,65,0.00,,---,0.00,VWS V14.01,2013-04-03 10:48:00,
2013-04-03 06:50:00,22.7,10.9,30.31,North,359,0.0,5.0,60,0.00,,---,0.00,VWS V14.01,2013-04-03 10:50:00,
2013-04-03 06:53:00,21.3,11.0,30.33,North,359,0.0,0.0,64,0.00,,---,0.00,VWS V14.01,2013-04-03 10:53:00,
2013-04-03 06:58:00,21.2,11.3,30.33,North,359,0.0,1.0,65,0.00,,---,0.00,VWS V14.01,2013-04-03 10:58:00,
2013-04-03 07:00:00,22.1,11.1,30.31,North,359,0.0,2.0,62,0.00,,---,0.00,VWS V14.01,2013-04-03 11:00:00,
2013-04-03 07:04:00,21.2,11.6,30.33,North,359,0.0,1.0,66,0.00,,---,0.00,VWS V14.01,2013-04-03 11:04:00,
2013-04-03 07:09:00,21.0,11.4,30.33,North,359,0.0,1.0,66,0.00,,---,0.00,VWS V14.01,2013-04-03 11:09:00,
2013-04-03 07:10:00,21.5,10.9,30.31,North,359,0.0,1.0,63,0.00,,---,0.00,VWS V14.01,2013-04-03 11:10:00,
2013-04-03 07:14:00,21.0,11.4,30.33,North,359,0.0,1.0,66,0.00,,---,0.00,VWS V14.01,2013-04-03 11:14:00,
2013-04-03 07:19:00,20.9,11.3,30.33,North,359,0.0,1.0,66,0.00,,---,0.00,VWS V14.01,2013-04-03 11:19:00,
2013-04-03 07:20:00,21.2,10.6,30.31,North,0,0.0,3.0,63,0.00,,---,0.00,VWS V14.01,2013-04-03 11:20:00,
2013-04-03 07:24:00,20.9,11.7,30.34,North,359,0.0,0.0,67,0.00,,---,0.00,VWS V14.01,2013-04-03 11:24:00,
2013-04-03 07:29:00,20.9,11.7,30.34,North,359,0.0,0.0,67,0.00,,---,0.00,VWS V14.01,2013-04-03 11:29:00,
2013-04-03 07:30:00,21.3,11.0,30.32,North,0,0.0,2.0,64,0.00,,---,0.00,VWS V14.01,2013-04-03 11:30:00,
2013-04-03 07:34:00,21.0,11.8,30.34,North,359,0.0,0.0,67,0.00,,---,0.00,VWS V14.01,2013-04-03 11:34:00,
2013-04-03 07:39:00,21.3,12.1,30.35,North,359,1.0,3.0,67,0.00,,---,0.00,VWS V14.01,2013-04-03 11:39:00,
2013-04-03 07:40:00,21.5,11.2,30.32,North,359,0.0,4.0,64,0.00,,---,0.00,VWS V14.01,2013-04-03 11:40:00,
2013-04-03 07:44:00,21.5,12.3,30.35,North,359,1.0,2.0,67,0.00,,---,0.00,VWS V14.01,2013-04-03 11:44:00,
2013-04-03 07:49:00,21.5,12.3,30.35,North,359,0.0,5.0,67,0.00,,---,0.00,VWS V14.01,2013-04-03 11:49:00,
2013-04-03 07:50:00,21.4,11.5,30.32,North,359,0.0,5.0,65,0.00,,---,0.00,VWS V14.01,2013-04-03 11:50:00,
2013-04-03 07:54:00,21.9,13.0,30.35,North,359,0.0,5.0,68,0.00,,---,0.00,VWS V14.01,2013-04-03 11:54:00,
2013-04-03 07:59:00,22.0,12.4,30.35,North,359,0.0,5.0,66,0.00,,---,0.00,VWS V14.01,2013-04-03 11:59:00,
2013-04-03 08:00:00,21.2,11.3,30.33,North,359,0.0,1.0,65,0.00,,---,0.00,VWS V14.01,2013-04-03 12:00:00,
2013-04-03 08:04:00,22.1,13.2,30.35,NNE,13,2.0,5.0,68,0.00,,---,0.00,VWS V14.01,2013-04-03 12:04:00,
2013-04-03 08:09:00,22.4,14.1,30.35,North,1,5.0,7.0,70,0.00,,---,0.00,VWS V14.01,2013-04-03 12:09:00,
2013-04-03 08:10:00,21.0,11.4,30.33,North,359,0.0,1.0,66,0.00,,---,0.00,VWS V14.01,2013-04-03 12:10:00,
2013-04-03 08:14:00,23.0,15.0,30.35,NNW,332,5.0,11.0,71,0.00,,---,0.00,VWS V14.01,2013-04-03 12:14:00,
2013-04-03 08:19:00,23.5,15.5,30.35,NNW,340,7.0,11.0,71,0.00,,---,0.00,VWS V14.01,2013-04-03 12:19:00,
2013-04-03 08:20:00,20.9,11.3,30.33,North,359,0.0,1.0,66,0.00,,---,0.00,VWS V14.01,2013-04-03 12:20:00,
2013-04-03 08:24:00,23.7,16.0,30.36,NNW,346,4.0,9.0,72,0.00,,---,0.00,VWS V14.01,2013-04-03 12:24:00,
2013-04-03 08:29:00,24.1,16.4,30.36,North,357,7.0,11.0,72,0.00,,---,0.00,VWS V14.01,2013-04-03 12:29:00,
2013-04-03 08:30:00,20.9,11.7,30.34,North,359,0.0,0.0,67,0.00,,---,0.00,VWS V14.01,2013-04-03 12:30:00,
2013-04-03 08:34:00,24.3,16.6,30.36,North,353,9.0,13.0,72,0.00,,---,0.00,VWS V14.01,2013-04-03 12:34:00,
2013-04-03 08:39:00,24.6,16.9,30.36,North,352,10.0,13.0,72,0.00,,---,0.00,VWS V14.01,2013-04-03 12:39:00,
2013-04-03 08:40:00,21.3,12.1,30.34,North,359,0.0,3.0,67,0.00,,---,0.00,VWS V14.01,2013-04-03 12:40:00,
2013-04-03 08:44:00,24.9,17.5,30.36,North,349,8.0,11.0,73,0.00,,---,0.00,VWS V14.01,2013-04-03 12:44:00,
2013-04-03 08:49:00,25.2,17.8,30.36,NNW,340,8.0,11.0,73,0.00,,---,0.00,VWS V14.01,2013-04-03 12:49:00,
2013-04-03 08:50:00,21.6,12.4,30.35,North,359,5.0,5.0,67,0.00,,---,0.00,VWS V14.01,2013-04-03 12:50:00,
2013-04-03 08:54:00,25.5,17.8,30.37,North,3,7.0,13.0,72,0.00,,---,0.00,VWS V14.01,2013-04-03 12:54:00,
2013-04-03 08:59:00,25.7,17.3,30.37,North,4,8.0,14.0,70,0.00,,---,0.00,VWS V14.01,2013-04-03 12:59:00,
2013-04-03 09:00:00,22.0,12.4,30.35,North,359,0.0,5.0,66,0.00,,---,0.00,VWS V14.01,2013-04-03 13:00:00,
2013-04-03 09:04:00,25.9,16.8,30.37,North,351,5.0,13.0,68,0.00,,---,0.00,VWS V14.01,2013-04-03 13:04:00,
2013-04-03 09:09:00,26.0,16.9,30.37,NNW,347,7.0,13.0,68,0.00,,---,0.00,VWS V14.01,2013-04-03 13:09:00,
2013-04-03 09:10:00,22.4,14.1,30.36,North,357,3.0,7.0,70,0.00,,---,0.00,VWS V14.01,2013-04-03 13:10:00,
2013-04-03 09:14:00,26.0,16.9,30.38,NNW,347,5.0,10.0,68,0.00,,---,0.00,VWS V14.01,2013-04-03 13:14:00,
2013-04-03 09:19:00,26.1,17.0,30.38,NNW,347,7.0,10.0,68,0.00,,---,0.00,VWS V14.01,2013-04-03 13:19:00,
2013-04-03 09:20:00,23.5,15.5,30.35,NNW,344,5.0,11.0,71,0.00,,---,0.00,VWS V14.01,2013-04-03 13:20:00,
2013-04-03 09:24:00,26.3,17.2,30.38,NNW,338,6.0,11.0,68,0.00,,---,0.00,VWS V14.01,2013-04-03 13:24:00,
2013-04-03 09:29:00,26.3,17.2,30.38,North,354,9.0,11.0,68,0.00,,---,0.00,VWS V14.01,2013-04-03 13:29:00,
2013-04-03 09:30:00,24.0,16.3,30.36,North,352,10.0,12.0,72,0.00,,---,0.00,VWS V14.01,2013-04-03 13:30:00,
2013-04-03 09:34:00,26.3,17.2,30.38,North,11,9.0,12.0,68,0.00,,---,0.00,VWS V14.01,2013-04-03 13:34:00,
2013-04-03 09:39:00,26.5,17.0,30.38,North,358,10.0,12.0,67,0.00,,---,0.00,VWS V14.01,2013-04-03 13:39:00,
2013-04-03 09:40:00,24.6,17.2,30.36,NNW,348,9.0,13.0,73,0.00,,---,0.00,VWS V14.01,2013-04-03 13:40:00,
2013-04-03 09:44:00,26.6,16.8,30.38,NNW,344,9.0,14.0,66,0.00,,---,0.00,VWS V14.01,2013-04-03 13:44:00,
2013-04-03 09:49:00,26.7,15.8,30.39,North,3,10.0,16.0,63,0.00,,---,0.00,VWS V14.01,2013-04-03 13:49:00,
2013-04-03 09:50:00,25.2,17.8,30.36,NNW,339,6.0,11.0,73,0.00,,---,0.00,VWS V14.01,2013-04-03 13:50:00,
2013-04-03 09:54:00,26.6,15.7,30.39,NNW,344,8.0,16.0,63,0.00,,---,0.00,VWS V14.01,2013-04-03 13:54:00,
2013-04-03 09:59:00,26.9,15.6,30.39,NNW,335,10.0,16.0,62,0.00,,---,0.00,VWS V14.01,2013-04-03 13:59:00,
2013-04-03 10:00:00,25.7,17.0,30.37,North,1,9.0,15.0,69,0.00,,---,0.00,VWS V14.01,2013-04-03 14:00:00,
2013-04-03 10:04:00,27.0,15.7,30.39,North,349,11.0,15.0,62,0.00,,---,0.00,VWS V14.01,2013-04-03 14:04:00,
2013-04-03 10:09:00,27.0,15.4,30.39,North,349,10.0,15.0,61,0.00,,---,0.00,VWS V14.01,2013-04-03 14:09:00,
2013-04-03 10:10:00,26.0,16.9,30.37,NNW,343,9.0,13.0,68,0.00,,---,0.00,VWS V14.01,2013-04-03 14:10:00,
2013-04-03 10:14:00,26.9,14.9,30.39,NNW,341,9.0,14.0,60,0.00,,---,0.00,VWS V14.01,2013-04-03 14:14:00,
2013-04-03 10:19:00,26.6,14.6,30.40,North,355,9.0,14.0,60,0.00,,---,0.00,VWS V14.01,2013-04-03 14:19:00,
2013-04-03 10:20:00,26.2,17.1,30.38,North,355,8.0,10.0,68,0.00,,---,0.00,VWS V14.01,2013-04-03 14:20:00,
2013-04-03 10:24:00,26.6,14.6,30.40,NNW,338,11.0,15.0,60,0.00,,---,0.00,VWS V14.01,2013-04-03 14:24:00,
2013-04-03 10:29:00,26.3,14.3,30.40,NNW,343,7.0,16.0,60,0.00,,---,0.00,VWS V14.01,2013-04-03 14:29:00,
2013-04-03 10:30:00,26.3,17.2,30.38,NNE,20,8.0,11.0,68,0.00,,---,0.00,VWS V14.01,2013-04-03 14:30:00,
2013-04-03 10:35:00,26.7,15.4,30.40,NNW,327,9.0,13.0,62,0.00,,---,0.00,VWS V14.01,2013-04-03 14:35:00,
2013-04-03 10:40:00,26.9,15.6,30.40,NNW,344,8.0,14.0,62,0.00,,---,0.00,VWS V14.01,2013-04-03 14:40:00,
2013-04-03 10:44:00,26.9,15.6,30.41,North,1,4.0,13.0,62,0.00,,---,0.00,VWS V14.01,2013-04-03 14:44:00,
2013-04-03 10:49:00,27.2,16.3,30.41,NNW,346,11.0,13.0,63,0.00,,---,0.00,VWS V14.01,2013-04-03 14:49:00,
2013-04-03 10:50:00,26.6,15.7,30.39,North,3,11.0,16.0,63,0.00,,---,0.00,VWS V14.01,2013-04-03 14:50:00,
2013-04-03 10:55:00,27.5,16.2,30.41,NNW,344,7.0,13.0,62,0.00,,---,0.00,VWS V14.01,2013-04-03 14:55:00,
2013-04-03 11:00:00,27.8,16.5,30.41,NNW,344,7.0,14.0,62,0.00,,---,0.00,VWS V14.01,2013-04-03 15:00:00,
2013-04-03 11:05:00,28.2,16.9,30.41,NW,318,8.0,12.0,62,0.00,,---,0.00,VWS V14.01,2013-04-03 15:05:00,
2013-04-03 11:10:00,28.5,16.4,30.41,NNW,335,7.0,12.0,60,0.00,,---,0.00,VWS V14.01,2013-04-03 15:10:00,
2013-04-03 11:15:00,28.5,16.4,30.41,NW,320,7.0,12.0,60,0.00,,---,0.00,VWS V14.01,2013-04-03 15:15:00,
2013-04-03 11:20:00,28.5,15.6,30.41,NNW,344,6.0,12.0,58,0.00,,---,0.00,VWS V14.01,2013-04-03 15:20:00,
2013-04-03 11:25:00,28.4,15.9,30.41,North,351,10.0,11.0,59,0.00,,---,0.00,VWS V14.01,2013-04-03 15:25:00,
2013-04-03 11:30:00,28.1,15.2,30.41,North,355,8.0,12.0,58,0.00,,---,0.00,VWS V14.01,2013-04-03 15:30:00,
2013-04-03 11:35:00,28.1,14.8,30.42,NW,322,5.0,13.0,57,0.00,,---,0.00,VWS V14.01,2013-04-03 15:35:00,
2013-04-03 11:40:00,28.2,14.1,30.42,NNW,343,6.0,11.0,55,0.00,,---,0.00,VWS V14.01,2013-04-03 15:40:00,
2013-04-03 11:45:00,28.4,14.7,30.42,North,351,8.0,11.0,56,0.00,,---,0.00,VWS V14.01,2013-04-03 15:45:00,
2013-04-03 11:50:00,28.7,15.4,30.42,North,349,6.0,9.0,57,0.00,,---,0.00,VWS V14.01,2013-04-03 15:50:00,
2013-04-03 11:55:00,28.7,15.0,30.42,NNW,344,5.0,14.0,56,0.00,,---,0.00,VWS V14.01,2013-04-03 15:55:00,
2013-04-03 12:00:00,29.0,14.9,30.42,North,7,6.0,7.0,55,0.00,,---,0.00,VWS V14.01,2013-04-03 16:00:00,
2013-04-03 12:05:00,29.1,15.4,30.43,NNW,328,7.0,16.0,56,0.00,,---,0.00,VWS V14.01,2013-04-03 16:05:00,
2013-04-03 12:10:00,29.1,15.8,30.43,North,357,5.0,7.0,57,0.00,,---,0.00,VWS V14.01,2013-04-03 16:10:00,
2013-04-03 12:15:00,29.4,15.7,30.43,WNW,298,4.0,9.0,56,0.00,,---,0.00,VWS V14.01,2013-04-03 16:15:00,
2013-04-03 12:20:00,29.6,15.4,30.43,NW,304,5.0,5.0,55,0.00,,---,0.00,VWS V14.01,2013-04-03 16:20:00,
2013-04-03 12:25:00,29.9,15.3,30.44,NNW,343,7.0,11.0,54,0.00,,---,0.00,VWS V14.01,2013-04-03 16:25:00,
2013-04-03 12:30:00,29.9,15.3,30.44,NW,304,4.0,5.0,54,0.00,,---,0.00,VWS V14.01,2013-04-03 16:30:00,
2013-04-03 12:35:00,30.0,15.8,30.44,NNW,345,4.0,11.0,55,0.00,,---,0.00,VWS V14.01,2013-04-03 16:35:00,
2013-04-03 12:40:00,30.3,16.1,30.44,NNW,329,3.0,4.0,55,0.00,,---,0.00,VWS V14.01,2013-04-03 16:40:00,
2013-04-03 12:45:00,30.8,15.7,30.44,WNW,292,6.0,12.0,53,0.00,,---,0.00,VWS V14.01,2013-04-03 16:45:00,
2013-04-03 12:50:00,30.7,16.0,30.44,North,0,4.0,10.0,54,0.00,,---,0.00,VWS V14.01,2013-04-03 16:50:00,
2013-04-03 12:55:00,30.8,15.3,30.44,NNW,329,2.0,13.0,52,0.00,,---,0.00,VWS V14.01,2013-04-03 16:55:00,
2013-04-03 13:00:00,30.8,15.3,30.43,NW,313,0.0,5.0,52,0.00,,---,0.00,VWS V14.01,2013-04-03 17:00:00,
2013-04-03 13:05:00,30.9,15.8,30.43,NNW,340,7.0,12.0,53,0.00,,---,0.00,VWS V14.01,2013-04-03 17:05:00,
2013-04-03 13:10:00,30.9,15.8,30.43,NNW,338,5.0,9.0,53,0.00,,---,0.00,VWS V14.01,2013-04-03 17:10:00,
2013-04-03 13:15:00,31.0,15.4,30.44,NW,320,4.0,9.0,52,0.00,,---,0.00,VWS V14.01,2013-04-03 17:15:00,
2013-04-03 13:20:00,31.4,14.9,30.44,WNW,301,9.0,10.0,50,0.00,,---,0.00,VWS V14.01,2013-04-03 17:20:00,
2013-04-03 13:25:00,31.8,16.2,30.44,WNW,295,2.0,10.0,52,0.00,,---,0.00,VWS V14.01,2013-04-03 17:25:00,
2013-04-03 13:30:00,32.1,16.0,30.44,NW,317,1.0,8.0,51,0.00,,---,0.00,VWS V14.01,2013-04-03 17:30:00,
2013-04-03 13:36:00,31.5,15.0,30.44,WSW,246,9.0,9.0,50,0.00,,---,0.00,VWS V14.01,2013-04-03 17:36:00,
2013-04-03 13:40:00,30.3,16.1,30.44,NNW,329,2.0,11.0,55,0.00,,---,0.00,VWS V14.01,2013-04-03 17:40:00,
2013-04-03 13:41:00,31.3,14.8,30.44,West,280,5.0,8.0,50,0.00,,---,0.00,VWS V14.01,2013-04-03 17:41:00,
2013-04-03 13:46:00,31.6,14.6,30.44,WNW,293,4.0,10.0,49,0.00,,---,0.00,VWS V14.01,2013-04-03 17:46:00,
2013-04-03 13:50:00,30.8,16.1,30.44,NNW,348,6.0,12.0,54,0.00,,---,0.00,VWS V14.01,2013-04-03 17:50:00,
2013-04-03 13:51:00,31.6,14.2,30.43,WNW,282,4.0,11.0,48,0.00,,---,0.00,VWS V14.01,2013-04-03 17:51:00,
2013-04-03 13:56:00,31.8,14.8,30.43,West,277,4.0,11.0,49,0.00,,---,0.00,VWS V14.01,2013-04-03 17:56:00,
2013-04-03 14:00:00,30.8,15.7,30.44,NW,316,5.0,13.0,53,0.00,,---,0.00,VWS V14.01,2013-04-03 18:00:00,
2013-04-03 14:01:00,31.8,14.8,30.43,North,356,4.0,7.0,49,0.00,,---,0.00,VWS V14.01,2013-04-03 18:01:00,
2013-04-03 14:06:00,31.8,14.8,30.43,West,260,7.0,11.0,49,0.00,,---,0.00,VWS V14.01,2013-04-03 18:06:00,
2013-04-03 14:10:00,30.8,15.3,30.43,NW,320,8.0,13.0,52,0.00,,---,0.00,VWS V14.01,2013-04-03 18:10:00,
2013-04-03 14:11:00,31.8,14.4,30.43,WNW,282,3.0,11.0,48,0.00,,---,0.00,VWS V14.01,2013-04-03 18:11:00,
2013-04-03 14:16:00,31.5,14.6,30.43,NW,312,4.0,11.0,49,0.00,,---,0.00,VWS V14.01,2013-04-03 18:16:00,
2013-04-03 14:20:00,31.3,14.8,30.44,WNW,289,4.0,9.0,50,0.00,,---,0.00,VWS V14.01,2013-04-03 18:20:00,
2013-04-03 14:22:00,31.3,13.9,30.43,WNW,298,4.0,15.0,48,0.00,,---,0.00,VWS V14.01,2013-04-03 18:22:00,
2013-04-03 14:27:00,31.8,14.8,30.43,WNW,286,10.0,15.0,49,0.00,,---,0.00,VWS V14.01,2013-04-03 18:27:00,
2013-04-03 14:30:00,32.1,15.6,30.44,NNW,337,7.0,10.0,50,0.00,,---,0.00,VWS V14.01,2013-04-03 18:30:00,
2013-04-03 14:32:00,31.9,14.9,30.43,West,264,6.0,8.0,49,0.00,,---,0.00,VWS V14.01,2013-04-03 18:32:00,
2013-04-03 14:37:00,31.8,14.4,30.43,NW,306,2.0,11.0,48,0.00,,---,0.00,VWS V14.01,2013-04-03 18:37:00,
2013-04-03 14:40:00,31.3,14.4,30.44,West,271,4.0,9.0,49,0.00,,---,0.00,VWS V14.01,2013-04-03 18:40:00,
2013-04-03 14:42:00,31.9,15.4,30.43,NNW,329,4.0,8.0,50,0.00,,---,0.00,VWS V14.01,2013-04-03 18:42:00,
2013-04-03 14:47:00,32.1,15.1,30.43,WNW,303,9.0,11.0,49,0.00,,---,0.00,VWS V14.01,2013-04-03 18:47:00,
2013-04-03 14:50:00,31.6,14.6,30.44,West,265,7.0,10.0,49,0.00,,---,0.00,VWS V14.01,2013-04-03 18:50:00,
2013-04-03 14:52:00,32.1,14.6,30.43,NW,324,7.0,8.0,48,0.00,,---,0.00,VWS V14.01,2013-04-03 18:52:00,
2013-04-03 14:57:00,32.1,14.6,30.43,WNW,300,5.0,9.0,48,0.00,,---,0.00,VWS V14.01,2013-04-03 18:57:00,
2013-04-03 15:00:00,31.8,14.8,30.43,West,266,4.0,11.0,49,0.00,,---,0.00,VWS V14.01,2013-04-03 19:00:00,
2013-04-03 15:02:00,32.2,15.2,30.43,SW,219,4.0,9.0,49,0.00,,---,0.00,VWS V14.01,2013-04-03 19:02:00,
2013-04-03 15:07:00,32.2,15.7,30.43,NW,309,5.0,10.0,50,0.00,,---,0.00,VWS V14.01,2013-04-03 19:07:00,
2013-04-03 15:10:00,31.8,14.8,30.43,North,358,3.0,11.0,49,0.00,,---,0.00,VWS V14.01,2013-04-03 19:10:00,
2013-04-03 15:12:00,32.4,15.4,30.43,WSW,253,5.0,10.0,49,0.00,,---,0.00,VWS V14.01,2013-04-03 19:12:00,
2013-04-03 15:17:00,32.4,14.9,30.43,WNW,297,5.0,10.0,48,0.00,,---,0.00,VWS V14.01,2013-04-03 19:17:00,
2013-04-03 15:20:00,31.5,14.6,30.43,WSW,248,7.0,11.0,49,0.00,,---,0.00,VWS V14.01,2013-04-03 19:20:00,
2013-04-03 15:22:00,32.2,14.7,30.43,NW,326,6.0,10.0,48,0.00,,---,0.00,VWS V14.01,2013-04-03 19:22:00,
2013-04-03 15:27:00,32.2,14.2,30.43,WNW,294,2.0,10.0,47,0.00,,---,0.00,VWS V14.01,2013-04-03 19:27:00,
2013-04-03 15:30:00,31.9,14.9,30.43,WNW,283,4.0,15.0,49,0.00,,---,0.00,VWS V14.01,2013-04-03 19:30:00,
2013-04-03 15:32:00,32.2,14.7,30.43,WNW,299,5.0,8.0,48,0.00,,---,0.00,VWS V14.01,2013-04-03 19:32:00,
2013-04-03 15:38:00,32.2,14.2,30.43,WNW,285,5.0,13.0,47,0.00,,---,0.00,VWS V14.01,2013-04-03 19:38:00,
2013-04-03 15:40:00,31.8,14.8,30.43,NW,314,3.0,11.0,49,0.00,,---,0.00,VWS V14.01,2013-04-03 19:40:00,
2013-04-03 15:43:00,32.2,14.7,30.42,WNW,287,11.0,11.0,48,0.00,,---,0.00,VWS V14.01,2013-04-03 19:43:00,
2013-04-03 15:48:00,32.4,15.4,30.43,WNW,302,6.0,12.0,49,0.00,,---,0.00,VWS V14.01,2013-04-03 19:48:00,
2013-04-03 15:50:00,31.9,14.9,30.43,NNW,330,8.0,11.0,49,0.00,,---,0.00,VWS V14.01,2013-04-03 19:50:00,
2013-04-03 15:53:00,32.4,14.9,30.42,West,281,7.0,11.0,48,0.00,,---,0.00,VWS V14.01,2013-04-03 19:53:00,
2013-04-03 15:58:00,32.7,15.2,30.43,West,273,5.0,11.0,48,0.00,,---,0.00,VWS V14.01,2013-04-03 19:58:00,
2013-04-03 16:00:00,31.9,14.0,30.43,West,272,5.0,9.0,47,0.00,,---,0.00,VWS V14.01,2013-04-03 20:00:00,
2013-04-03 16:03:00,32.5,15.0,30.43,NW,305,3.0,10.0,48,0.00,,---,0.00,VWS V14.01,2013-04-03 20:03:00,
2013-04-03 16:08:00,32.4,15.4,30.43,WNW,293,3.0,13.0,49,0.00,,---,0.00,VWS V14.01,2013-04-03 20:08:00,
2013-04-03 16:10:00,32.4,15.9,30.43,NW,315,5.0,10.0,50,0.00,,---,0.00,VWS V14.01,2013-04-03 20:10:00,
2013-04-03 16:13:00,33.0,15.9,30.43,WNW,288,2.0,7.0,49,0.00,,---,0.00,VWS V14.01,2013-04-03 20:13:00,
2013-04-03 16:18:00,33.2,15.2,30.43,WSW,253,4.0,9.0,47,0.00,,---,0.00,VWS V14.01,2013-04-03 20:18:00,
2013-04-03 16:20:00,32.4,15.4,30.43,WNW,285,4.0,11.0,49,0.00,,---,0.00,VWS V14.01,2013-04-03 20:20:00,
2013-04-03 16:23:00,33.2,15.2,30.43,WNW,285,3.0,11.0,47,0.00,,---,0.00,VWS V14.01,2013-04-03 20:23:00,
2013-04-03 16:28:00,33.2,15.2,30.43,West,275,6.0,11.0,47,0.00,,---,0.00,VWS V14.01,2013-04-03 20:28:00,
2013-04-03 16:30:00,32.2,14.7,30.43,West,275,4.0,10.0,48,0.00,,---,0.00,VWS V14.01,2013-04-03 20:30:00,
2013-04-03 16:33:00,33.2,15.2,30.43,NW,319,3.0,10.0,47,0.00,,---,0.00,VWS V14.01,2013-04-03 20:33:00,
2013-04-03 16:38:00,33.2,15.2,30.42,WNW,302,8.0,13.0,47,0.00,,---,0.00,VWS V14.01,2013-04-03 20:38:00,
2013-04-03 16:40:00,32.2,14.2,30.42,NW,304,5.0,13.0,47,0.00,,---,0.00,VWS V14.01,2013-04-03 20:40:00,
2013-04-03 16:43:00,32.9,14.9,30.42,NNW,335,3.0,10.0,47,0.00,,---,0.00,VWS V14.01,2013-04-03 20:43:00,
2013-04-03 16:48:00,33.0,15.0,30.42,West,276,1.0,10.0,47,0.00,,---,0.00,VWS V14.01,2013-04-03 20:48:00,
2013-04-03 16:50:00,32.4,15.9,30.42,West,275,5.0,12.0,50,0.00,,---,0.00,VWS V14.01,2013-04-03 20:50:00,
2013-04-03 16:53:00,33.2,14.7,30.42,WSW,255,5.0,7.0,46,0.00,,---,0.00,VWS V14.01,2013-04-03 20:53:00,
2013-04-03 16:58:00,33.3,14.8,30.42,WNW,299,4.0,10.0,46,0.00,,---,0.00,VWS V14.01,2013-04-03 20:58:00,
2013-04-03 17:00:00,32.7,15.7,30.43,West,267,3.0,11.0,49,0.00,,---,0.00,VWS V14.01,2013-04-03 21:00:00,
2013-04-03 17:03:00,33.2,15.6,30.42,West,265,4.0,13.0,48,0.00,,---,0.00,VWS V14.01,2013-04-03 21:03:00,
2013-04-03 17:08:00,33.2,14.2,30.41,SW,226,5.0,13.0,45,0.00,,---,0.00,VWS V14.01,2013-04-03 21:08:00,
2013-04-03 17:10:00,32.5,15.5,30.43,West,270,2.0,13.0,49,0.00,,---,0.00,VWS V14.01,2013-04-03 21:10:00,
2013-04-03 17:13:00,33.3,14.8,30.41,West,268,3.0,7.0,46,0.00,,---,0.00,VWS V14.01,2013-04-03 21:13:00,
2013-04-03 17:18:00,33.3,13.8,30.41,West,259,7.0,10.0,44,0.00,,---,0.00,VWS V14.01,2013-04-03 21:18:00,
2013-04-03 17:20:00,33.3,16.2,30.43,NW,325,4.0,9.0,49,0.00,,---,0.00,VWS V14.01,2013-04-03 21:20:00,
2013-04-03 17:23:00,33.3,14.3,30.40,WSW,245,3.0,7.0,45,0.00,,---,0.00,VWS V14.01,2013-04-03 21:23:00,
2013-04-03 17:28:00,33.3,13.8,30.40,WNW,303,4.0,7.0,44,0.00,,---,0.00,VWS V14.01,2013-04-03 21:28:00,
2013-04-03 17:30:00,33.2,15.6,30.42,West,265,3.0,11.0,48,0.00,,---,0.00,VWS V14.01,2013-04-03 21:30:00,
2013-04-03 17:34:00,33.5,14.4,30.39,NW,319,2.0,5.0,45,0.00,,---,0.00,VWS V14.01,2013-04-03 21:34:00,
2013-04-03 17:39:00,33.6,14.0,30.39,WNW,286,3.0,6.0,44,0.00,,---,0.00,VWS V14.01,2013-04-03 21:39:00,
2013-04-03 17:40:00,33.0,14.5,30.42,NNW,338,3.0,13.0,46,0.00,,---,0.00,VWS V14.01,2013-04-03 21:40:00,
2013-04-03 17:44:00,33.7,14.1,30.38,NNW,346,5.0,5.0,44,0.00,,---,0.00,VWS V14.01,2013-04-03 21:44:00,
2013-04-03 17:49:00,33.5,13.4,30.37,NNW,327,2.0,6.0,43,0.00,,---,0.00,VWS V14.01,2013-04-03 21:49:00,
2013-04-03 17:50:00,33.0,14.5,30.42,WSW,243,6.0,10.0,46,0.00,,---,0.00,VWS V14.01,2013-04-03 21:50:00,
2013-04-03 17:54:00,33.2,13.7,30.36,NNW,327,2.0,4.0,44,0.00,,---,0.00,VWS V14.01,2013-04-03 21:54:00,
2013-04-03 17:59:00,33.0,14.0,30.36,NW,326,2.0,4.0,45,0.00,,---,0.00,VWS V14.01,2013-04-03 21:59:00,
2013-04-03 18:00:00,33.3,14.8,30.42,West,276,2.0,10.0,46,0.00,,---,0.00,VWS V14.01,2013-04-03 22:00:00,
2013-04-03 18:04:00,33.3,13.8,30.36,NW,323,1.0,3.0,44,0.00,,---,0.00,VWS V14.01,2013-04-03 22:04:00,
2013-04-03 18:09:00,34.2,14.1,30.37,NW,323,6.0,6.0,43,0.00,,---,0.00,VWS V14.01,2013-04-03 22:09:00,
2013-04-03 18:10:00,33.2,14.2,30.42,West,275,5.0,13.0,45,0.00,,---,0.00,VWS V14.01,2013-04-03 22:10:00,
2013-04-03 18:15:00,33.6,13.0,30.36,West,278,2.0,6.0,42,0.00,,---,0.00,VWS V14.01,2013-04-03 22:15:00,
2013-04-03 18:20:00,33.8,13.1,30.36,WNW,293,2.0,6.0,42,0.00,,---,0.00,VWS V14.01,2013-04-03 22:20:00,
2013-04-03 18:25:00,33.8,13.1,30.35,WNW,301,2.0,3.0,42,0.00,,---,0.00,VWS V14.01,2013-04-03 22:25:00,
2013-04-03 18:30:00,33.7,13.6,30.35,WNW,302,0.0,3.0,43,0.00,,---,0.00,VWS V14.01,2013-04-03 22:30:00,
2013-04-03 18:35:00,34.2,13.5,30.35,WNW,295,0.0,2.0,42,0.00,,---,0.00,VWS V14.01,2013-04-03 22:35:00,
2013-04-03 18:40:00,34.2,13.0,30.34,WNW,286,2.0,2.0,41,0.00,,---,0.00,VWS V14.01,2013-04-03 22:40:00,
2013-04-03 18:45:00,33.9,13.2,30.33,WNW,288,2.0,4.0,42,0.00,,---,0.00,VWS V14.01,2013-04-03 22:45:00,
2013-04-03 18:50:00,33.3,12.7,30.34,NW,306,1.0,1.0,42,0.00,,---,0.00,VWS V14.01,2013-04-03 22:50:00,
2013-04-03 18:55:00,33.3,12.7,30.34,SW,229,0.0,5.0,42,0.00,,---,0.00,VWS V14.01,2013-04-03 22:55:00,
2013-04-03 19:00:00,33.3,13.8,30.33,SW,229,0.0,5.0,44,0.00,,---,0.00,VWS V14.01,2013-04-03 23:00:00,
2013-04-03 19:05:00,33.9,13.8,30.34,SW,229,0.0,2.0,43,0.00,,---,0.00,VWS V14.01,2013-04-03 23:05:00,
2013-04-03 19:10:00,34.3,13.6,30.33,SW,229,1.0,3.0,42,0.00,,---,0.00,VWS V14.01,2013-04-03 23:10:00,
2013-04-03 19:15:00,34.5,14.3,30.34,SW,217,5.0,5.0,43,0.00,,---,0.00,VWS V14.01,2013-04-03 23:15:00,
2013-04-03 19:20:00,33.6,13.5,30.33,South,178,3.0,3.0,43,0.00,,---,0.00,VWS V14.01,2013-04-03 23:20:00,
2013-04-03 19:25:00,33.0,13.0,30.33,South,173,2.0,4.0,43,0.00,,---,0.00,VWS V14.01,2013-04-03 23:25:00,
2013-04-03 19:30:00,32.5,13.0,30.33,SW,216,1.0,2.0,44,0.00,,---,0.00,VWS V14.01,2013-04-03 23:30:00,
2013-04-03 19:35:00,32.2,13.8,30.33,SSW,211,1.0,4.0,46,0.00,,---,0.00,VWS V14.01,2013-04-03 23:35:00,
2013-04-03 19:40:00,31.8,13.9,30.33,SSW,192,3.0,4.0,47,0.00,,---,0.00,VWS V14.01,2013-04-03 23:40:00,
2013-04-03 19:45:00,31.6,14.2,30.33,SSW,200,0.0,5.0,48,0.00,,---,0.00,VWS V14.01,2013-04-03 23:45:00,
2013-04-03 19:50:00,31.4,14.5,30.34,SE,142,0.0,2.0,49,0.00,,---,0.00,VWS V14.01,2013-04-03 23:50:00,
2013-04-03 19:55:00,31.2,14.7,30.34,SSE,150,2.0,4.0,50,0.00,,---,0.00,VWS V14.01,2013-04-03 23:55:00,
2013-04-03 20:00:00,30.9,14.5,30.33,SSE,153,0.0,1.0,50,0.00,,---,0.00,VWS V14.01,2013-04-04 00:00:00,
2013-04-03 20:05:00,30.6,14.2,30.33,SSE,155,2.0,3.0,50,0.00,,---,0.00,VWS V14.01,2013-04-04 00:05:00,
2013-04-03 20:10:00,30.3,13.9,30.33,South,188,2.0,4.0,50,0.00,,---,0.00,VWS V14.01,2013-04-04 00:10:00,
2013-04-03 20:15:00,30.3,14.4,30.33,SSW,193,2.0,5.0,51,0.00,,---,0.00,VWS V14.01,2013-04-04 00:15:00,
2013-04-03 20:20:00,30.2,14.3,30.34,SSW,193,2.0,2.0,51,0.00,,---,0.00,VWS V14.01,2013-04-04 00:20:00,
2013-04-03 20:25:00,30.2,14.3,30.34,SSW,198,1.0,4.0,51,0.00,,---,0.00,VWS V14.01,2013-04-04 00:25:00,
2013-04-03 20:30:00,30.3,14.8,30.33,SSW,198,1.0,2.0,52,0.00,,---,0.00,VWS V14.01,2013-04-04 00:30:00,
2013-04-03 20:35:00,30.2,14.7,30.34,SSW,197,1.0,3.0,52,0.00,,---,0.00,VWS V14.01,2013-04-04 00:35:00,
2013-04-03 20:40:00,30.0,15.0,30.33,SSW,197,2.0,2.0,53,0.00,,---,0.00,VWS V14.01,2013-04-04 00:40:00,
2013-04-03 20:45:00,30.0,15.4,30.34,SSW,197,0.0,4.0,54,0.00,,---,0.00,VWS V14.01,2013-04-04 00:45:00,
2013-04-03 20:50:00,29.9,15.3,30.33,SSW,196,0.0,0.0,54,0.00,,---,0.00,VWS V14.01,2013-04-04 00:50:00,
2013-04-03 20:55:00,29.7,15.5,30.33,SSW,196,0.0,3.0,55,0.00,,---,0.00,VWS V14.01,2013-04-04 00:55:00,
2013-04-03 21:00:00,30.9,14.5,30.33,SSE,153,1.0,4.0,50,0.00,,---,0.00,VWS V14.01,2013-04-04 01:00:00,
2013-04-03 21:01:00,29.4,15.2,30.33,SSW,200,1.0,2.0,55,0.00,,---,0.00,VWS V14.01,2013-04-04 01:01:00,
2013-04-03 21:06:00,29.4,15.2,30.33,SSW,201,0.0,3.0,55,0.00,,---,0.00,VWS V14.01,2013-04-04 01:06:00,
2013-04-03 21:10:00,30.5,14.1,30.33,SSE,154,3.0,4.0,50,0.00,,---,0.00,VWS V14.01,2013-04-04 01:10:00,
2013-04-03 21:11:00,29.4,15.7,30.33,SSW,201,0.0,1.0,56,0.00,,---,0.00,VWS V14.01,2013-04-04 01:11:00,
2013-04-03 21:16:00,29.1,15.8,30.33,SSW,201,0.0,2.0,57,0.00,,---,0.00,VWS V14.01,2013-04-04 01:16:00,
2013-04-03 21:20:00,30.2,14.7,30.34,SSW,193,1.0,5.0,52,0.00,,---,0.00,VWS V14.01,2013-04-04 01:20:00,
2013-04-03 21:21:00,29.0,16.1,30.33,SSW,201,0.0,0.0,58,0.00,,---,0.00,VWS V14.01,2013-04-04 01:21:00,
2013-04-03 21:26:00,28.7,15.8,30.33,SSW,200,0.0,0.0,58,0.00,,---,0.00,VWS V14.01,2013-04-04 01:26:00,
2013-04-03 21:30:00,30.3,14.8,30.33,SSW,198,1.0,4.0,52,0.00,,---,0.00,VWS V14.01,2013-04-04 01:30:00,
2013-04-03 21:31:00,28.4,15.9,30.32,SSW,202,0.0,1.0,59,0.00,,---,0.00,VWS V14.01,2013-04-04 01:31:00,
2013-04-03 21:36:00,28.1,16.0,30.33,SSW,203,0.0,3.0,60,0.00,,---,0.00,VWS V14.01,2013-04-04 01:36:00,
2013-04-03 21:40:00,30.0,15.0,30.33,SSW,197,2.0,3.0,53,0.00,,---,0.00,VWS V14.01,2013-04-04 01:40:00,
2013-04-03 21:41:00,27.9,15.8,30.32,SSW,204,0.0,2.0,60,0.00,,---,0.00,VWS V14.01,2013-04-04 01:41:00,
2013-04-03 21:46:00,27.6,15.9,30.33,SSW,204,0.0,3.0,61,0.00,,---,0.00,VWS V14.01,2013-04-04 01:46:00,
2013-04-03 21:50:00,29.9,15.3,30.33,SSW,196,0.0,4.0,54,0.00,,---,0.00,VWS V14.01,2013-04-04 01:50:00,
2013-04-03 21:51:00,27.5,16.2,30.32,SSW,204,0.0,0.0,62,0.00,,---,0.00,VWS V14.01,2013-04-04 01:51:00,
2013-04-03 21:57:00,27.6,16.3,30.33,SSW,205,0.0,4.0,62,0.00,,---,0.00,VWS V14.01,2013-04-04 01:57:00,
2013-04-03 22:00:00,29.4,15.2,30.33,SSW,200,0.0,3.0,55,0.00,,---,0.00,VWS V14.01,2013-04-04 02:00:00,
2013-04-03 22:02:00,27.7,16.4,30.32,SSW,205,0.0,3.0,62,0.00,,---,0.00,VWS V14.01,2013-04-04 02:02:00,
2013-04-03 22:07:00,27.5,16.6,30.32,SSW,205,0.0,3.0,63,0.00,,---,0.00,VWS V14.01,2013-04-04 02:07:00,
2013-04-03 22:10:00,29.4,16.1,30.33,SSW,202,1.0,3.0,57,0.00,,---,0.00,VWS V14.01,2013-04-04 02:10:00,
2013-04-03 22:12:00,27.3,16.0,30.32,SSW,205,1.0,3.0,62,0.00,,---,0.00,VWS V14.01,2013-04-04 02:12:00,
2013-04-03 22:17:00,27.4,16.5,30.32,West,265,0.0,5.0,63,0.00,,---,0.00,VWS V14.01,2013-04-04 02:17:00,
2013-04-03 22:20:00,29.0,15.7,30.33,SSW,201,0.0,3.0,57,0.00,,---,0.00,VWS V14.01,2013-04-04 02:20:00,
2013-04-03 22:22:00,27.2,16.3,30.32,West,265,0.0,0.0,63,0.00,,---,0.00,VWS V14.01,2013-04-04 02:22:00,
2013-04-03 22:27:00,26.9,16.4,30.32,West,266,0.0,1.0,64,0.00,,---,0.00,VWS V14.01,2013-04-04 02:27:00,
2013-04-03 22:30:00,28.5,15.6,30.33,SSW,202,0.0,3.0,58,0.00,,---,0.00,VWS V14.01,2013-04-04 02:30:00,
2013-04-03 22:32:00,27.1,16.6,30.31,West,266,0.0,3.0,64,0.00,,---,0.00,VWS V14.01,2013-04-04 02:32:00,
2013-04-03 22:37:00,27.1,16.9,30.31,West,266,2.0,3.0,65,0.00,,---,0.00,VWS V14.01,2013-04-04 02:37:00,
2013-04-03 22:40:00,28.1,16.0,30.33,SSW,204,0.0,3.0,60,0.00,,---,0.00,VWS V14.01,2013-04-04 02:40:00,
2013-04-03 22:42:00,26.6,16.4,30.31,West,266,0.0,1.0,65,0.00,,---,0.00,VWS V14.01,2013-04-04 02:42:00,
2013-04-03 22:47:00,26.7,16.9,30.30,West,266,0.0,3.0,66,0.00,,---,0.00,VWS V14.01,2013-04-04 02:47:00,
2013-04-03 22:50:00,27.6,16.3,30.32,SSW,204,0.0,3.0,62,0.00,,---,0.00,VWS V14.01,2013-04-04 02:50:00,
2013-04-03 22:52:00,27.1,16.9,30.30,West,266,0.0,2.0,65,0.00,,---,0.00,VWS V14.01,2013-04-04 02:52:00,
2013-04-03 22:57:00,27.0,16.8,30.30,West,266,0.0,2.0,65,0.00,,---,0.00,VWS V14.01,2013-04-04 02:57:00,
2013-04-03 23:00:00,27.6,16.3,30.32,SSW,205,0.0,4.0,62,0.00,,---,0.00,VWS V14.01,2013-04-04 03:00:00,
2013-04-03 23:02:00,26.7,16.5,30.29,West,266,0.0,3.0,65,0.00,,---,0.00,VWS V14.01,2013-04-04 03:02:00,
2013-04-03 23:07:00,26.3,16.5,30.29,West,266,0.0,3.0,66,0.00,,---,0.00,VWS V14.01,2013-04-04 03:07:00,
2013-04-03 23:10:00,27.4,16.5,30.32,SSW,205,1.0,3.0,63,0.00,,---,0.00,VWS V14.01,2013-04-04 03:10:00,
2013-04-03 23:12:00,26.1,16.7,30.29,West,266,0.0,0.0,67,0.00,,---,0.00,VWS V14.01,2013-04-04 03:12:00,
2013-04-03 23:17:00,26.1,17.0,30.29,West,266,0.0,2.0,68,0.00,,---,0.00,VWS V14.01,2013-04-04 03:17:00,
2013-04-03 23:20:00,27.2,16.3,30.32,West,265,0.0,5.0,63,0.00,,---,0.00,VWS V14.01,2013-04-04 03:20:00,
2013-04-03 23:22:00,26.1,17.0,30.29,WSW,244,2.0,4.0,68,0.00,,---,0.00,VWS V14.01,2013-04-04 03:22:00,
2013-04-03 23:27:00,26.5,17.0,30.29,SW,228,1.0,5.0,67,0.00,,---,0.00,VWS V14.01,2013-04-04 03:27:00,
2013-04-03 23:30:00,26.9,16.4,30.31,West,266,0.0,2.0,64,0.00,,---,0.00,VWS V14.01,2013-04-04 03:30:00,
2013-04-03 23:32:00,26.8,17.3,30.29,South,186,2.0,5.0,67,0.00,,---,0.00,VWS V14.01,2013-04-04 03:32:00,
2013-04-03 23:37:00,26.6,16.8,30.29,South,186,3.0,5.0,66,0.00,,---,0.00,VWS V14.01,2013-04-04 03:37:00,
2013-04-03 23:40:00,26.8,16.6,30.31,West,266,0.0,3.0,65,0.00,,---,0.00,VWS V14.01,2013-04-04 03:40:00,
2013-04-03 23:42:00,26.4,16.9,30.29,South,184,2.0,5.0,67,0.00,,---,0.00,VWS V14.01,2013-04-04 03:42:00,
2013-04-03 23:47:00,26.5,17.0,30.28,South,183,2.0,5.0,67,0.00,,---,0.00,VWS V14.01,2013-04-04 03:47:00,
2013-04-03 23:50:00,27.1,16.9,30.30,West,266,0.0,3.0,65,0.00,,---,0.00,VWS V14.01,2013-04-04 03:50:00,
2013-04-03 23:52:00,26.2,16.8,30.28,South,177,2.0,5.0,67,0.00,,---,0.00,VWS V14.01,2013-04-04 03:52:00,
2013-04-03 23:57:00,25.8,16.7,30.28,South,177,1.0,5.0,68,0.00,,---,0.00,VWS V14.01,2013-04-04 03:57:00,